Time;durP1;ratioP1;P1;durP2;ratioP2;P2;SDS_P1;SDS_P2;PMS_P1;PMS_P2;Temp;Humidity;BMP_temperature;BMP_pressure;BME280_temperature;BME280_humidity;BME280_pressure;Samples;Min_cycle;Max_cycle;Signal;HPM_P1;HPM_P2
2021/08/29 00:01:39;;;;;;;6.03;3.00;;;16.80;99.90;;;;;;5016123;28;20298;-50
2021/08/29 00:04:06;;;;;;;5.03;2.80;;;16.80;99.90;;;;;;5015051;28;20279;-50
2021/08/29 00:06:33;;;;;;;5.30;2.40;;;16.80;99.90;;;;;;5024465;28;20237;-50
2021/08/29 00:09:00;;;;;;;6.57;2.87;;;16.90;99.90;;;;;;5023335;28;20326;-50
2021/08/29 00:11:27;;;;;;;4.13;2.80;;;16.90;99.90;;;;;;5025803;28;20276;-50
2021/08/29 00:13:54;;;;;;;9.20;3.20;;;16.80;99.90;;;;;;5021226;28;20370;-50
2021/08/29 00:16:21;;;;;;;6.43;2.63;;;16.70;99.90;;;;;;5023498;28;20306;-50
2021/08/29 00:18:47;;;;;;;6.97;2.97;;;16.70;99.90;;;;;;5024070;28;20707;-50
2021/08/29 00:21:14;;;;;;;9.53;3.20;;;16.70;99.90;;;;;;5020455;28;20460;-50
2021/08/29 00:23:41;;;;;;;5.43;2.50;;;16.80;99.90;;;;;;5019990;28;20215;-50
2021/08/29 00:26:08;;;;;;;8.80;2.80;;;16.80;99.90;;;;;;5021325;28;20300;-50
2021/08/29 00:28:35;;;;;;;6.40;2.80;;;16.80;99.90;;;;;;5021471;28;20314;-50
2021/08/29 00:31:02;;;;;;;7.67;3.00;;;16.80;99.90;;;;;;5019909;28;20671;-50
2021/08/29 00:33:28;;;;;;;4.07;2.70;;;16.80;99.90;;;;;;5017687;28;20297;-50
2021/08/29 00:35:56;;;;;;;10.30;3.00;;;16.80;99.90;;;;;;5018015;28;20502;-50
2021/08/29 00:38:23;;;;;;;6.87;3.40;;;16.80;99.90;;;;;;5020649;28;20695;-50
2021/08/29 00:40:50;;;;;;;5.30;2.80;;;16.80;99.90;;;;;;5020301;28;20330;-50
2021/08/29 00:43:24;;;;;;;4.73;3.00;;;16.80;99.90;;;;;;5017645;28;20292;-50
2021/08/29 00:45:54;;;;;;;6.97;3.43;;;16.70;99.90;;;;;;5018873;28;20779;-50
2021/08/29 00:48:21;;;;;;;8.37;3.27;;;16.80;99.90;;;;;;5019620;28;20289;-50
2021/08/29 00:50:49;;;;;;;4.83;2.77;;;16.80;99.90;;;;;;5015945;28;20503;-50
2021/08/29 00:53:20;;;;;;;7.80;3.20;;;16.90;99.90;;;;;;5017542;28;20223;-50
2021/08/29 00:55:54;;;;;;;3.87;3.07;;;16.80;99.90;;;;;;5019666;28;20321;-50
2021/08/29 00:58:25;;;;;;;7.00;3.27;;;16.80;99.90;;;;;;5023456;28;20204;-50
2021/08/29 01:00:52;;;;;;;6.37;3.13;;;16.90;99.90;;;;;;5019491;28;20210;-50
2021/08/29 01:03:25;;;;;;;7.07;2.80;;;17.00;99.90;;;;;;5020754;28;20224;-50
2021/08/29 01:06:20;;;;;;;6.03;2.93;;;17.00;99.90;;;;;;5019712;28;20278;-50
2021/08/29 01:08:59;;;;;;;11.87;2.80;;;17.00;99.90;;;;;;5023622;28;20688;-50
2021/08/29 01:11:27;;;;;;;4.30;2.50;;;17.00;99.90;;;;;;5024055;28;20213;-50
2021/08/29 01:14:00;;;;;;;6.53;2.73;;;17.00;99.90;;;;;;5022422;28;20306;-49
2021/08/29 01:16:32;;;;;;;6.37;2.93;;;17.00;99.90;;;;;;5024586;28;20270;-49
2021/08/29 01:19:05;;;;;;;8.10;3.00;;;16.80;99.90;;;;;;5022579;28;20305;-50
2021/08/29 01:21:35;;;;;;;5.53;2.73;;;16.80;99.90;;;;;;5019396;28;20209;-50
2021/08/29 01:24:07;;;;;;;5.07;2.43;;;17.00;99.90;;;;;;5022451;28;20207;-50
2021/08/29 01:26:43;;;;;;;3.53;2.10;;;16.90;99.90;;;;;;5021514;28;20898;-50
2021/08/29 01:29:12;;;;;;;4.63;2.60;;;16.90;99.90;;;;;;5025742;28;21029;-49
2021/08/29 01:31:41;;;;;;;6.53;2.03;;;16.70;99.90;;;;;;5017137;28;20233;-50
2021/08/29 01:34:12;;;;;;;4.57;2.27;;;16.80;99.90;;;;;;5021561;28;20202;-50
2021/08/29 01:36:41;;;;;;;6.43;1.97;;;16.90;99.90;;;;;;5019503;28;20245;-50
2021/08/29 01:39:08;;;;;;;4.33;2.30;;;16.90;99.90;;;;;;5018736;28;20277;-50
2021/08/29 01:41:39;;;;;;;6.83;2.60;;;16.90;99.90;;;;;;5019540;28;21398;-50
2021/08/29 01:44:07;;;;;;;5.10;2.10;;;16.90;99.90;;;;;;5018457;28;20289;-50
2021/08/29 01:46:35;;;;;;;4.27;2.20;;;17.00;99.90;;;;;;5018396;28;20250;-50
2021/08/29 01:49:04;;;;;;;4.03;1.90;;;17.00;99.90;;;;;;5017538;28;20230;-49
2021/08/29 01:51:30;;;;;;;4.23;2.60;;;17.10;99.90;;;;;;5015770;28;20293;-50
2021/08/29 01:53:57;;;;;;;3.67;2.20;;;16.90;99.90;;;;;;5016922;28;20794;-50
2021/08/29 01:56:24;;;;;;;3.80;2.27;;;16.90;99.90;;;;;;5017472;28;20206;-50
2021/08/29 01:58:51;;;;;;;6.90;2.50;;;16.90;99.90;;;;;;5017534;28;20297;-50
2021/08/29 02:01:18;;;;;;;5.83;2.83;;;16.80;99.90;;;;;;5017014;28;20678;-50
2021/08/29 02:03:45;;;;;;;7.10;2.63;;;16.90;99.90;;;;;;5015212;28;20262;-50
2021/08/29 02:06:32;;;;;;;2.97;2.43;;;16.80;99.90;;;;;;5017201;28;20214;-50
2021/08/29 02:09:02;;;;;;;3.57;2.53;;;16.90;99.90;;;;;;5018079;28;20769;-50
2021/08/29 02:11:33;;;;;;;4.33;2.90;;;16.90;99.90;;;;;;5019131;28;20257;-50
2021/08/29 02:14:02;;;;;;;4.27;2.60;;;17.00;99.90;;;;;;5018508;28;20297;-50
2021/08/29 02:16:36;;;;;;;4.47;2.37;;;16.90;99.90;;;;;;5015366;28;20337;-50
2021/08/29 02:19:04;;;;;;;5.43;2.53;;;17.00;99.90;;;;;;5016937;28;20618;-50
2021/08/29 02:21:32;;;;;;;6.63;2.70;;;17.00;99.90;;;;;;5018216;28;20302;-50
2021/08/29 02:24:01;;;;;;;5.90;2.87;;;16.80;99.90;;;;;;5016005;28;20302;-50
2021/08/29 02:26:29;;;;;;;4.03;2.80;;;16.80;99.90;;;;;;5019149;28;20261;-50
2021/08/29 02:28:56;;;;;;;6.83;3.20;;;16.80;99.90;;;;;;5018068;28;20284;-50
2021/08/29 02:31:24;;;;;;;5.03;2.97;;;16.90;99.90;;;;;;5018197;28;20308;-50
2021/08/29 02:33:50;;;;;;;7.77;2.80;;;16.90;99.90;;;;;;5013652;28;20234;-50
2021/08/29 02:36:19;;;;;;;8.47;2.63;;;17.00;99.90;;;;;;5017883;28;20302;-50
2021/08/29 02:38:48;;;;;;;7.67;3.00;;;17.00;99.90;;;;;;5018331;28;20204;-50
2021/08/29 02:41:17;;;;;;;4.87;2.20;;;16.80;99.90;;;;;;5019442;28;20292;-49
2021/08/29 02:43:45;;;;;;;6.43;2.70;;;16.90;99.90;;;;;;5017201;28;20651;-50
2021/08/29 02:46:12;;;;;;;7.37;2.70;;;17.00;99.90;;;;;;5016175;28;20225;-50
2021/08/29 02:48:44;;;;;;;5.10;2.40;;;17.00;99.90;;;;;;5015871;28;20304;-50
2021/08/29 02:51:14;;;;;;;6.00;2.70;;;17.00;99.90;;;;;;5020827;28;20594;-50
2021/08/29 02:53:42;;;;;;;3.53;2.33;;;17.00;99.90;;;;;;5020068;28;20300;-50
2021/08/29 02:56:10;;;;;;;5.83;2.60;;;17.00;99.90;;;;;;5018521;28;20293;-49
2021/08/29 02:58:38;;;;;;;7.83;3.07;;;17.10;99.90;;;;;;5018954;28;20285;-50
2021/08/29 03:01:05;;;;;;;2.70;2.03;;;17.00;99.90;;;;;;5000882;28;20297;-50
2021/08/29 03:03:32;;;;;;;6.67;2.53;;;17.10;99.90;;;;;;5014995;28;20232;-50
2021/08/29 03:05:59;;;;;;;4.67;2.43;;;17.10;99.90;;;;;;5017198;28;20208;-50
2021/08/29 03:08:27;;;;;;;7.00;2.47;;;16.80;99.90;;;;;;5018039;28;20199;-50
2021/08/29 03:10:54;;;;;;;7.70;2.50;;;16.80;99.90;;;;;;5018437;28;20314;-50
2021/08/29 03:13:21;;;;;;;6.67;2.97;;;16.90;99.90;;;;;;5014654;28;20304;-50
2021/08/29 03:15:48;;;;;;;7.80;2.93;;;16.90;99.90;;;;;;5017863;28;20616;-50
2021/08/29 03:18:15;;;;;;;3.77;2.50;;;16.90;99.90;;;;;;5017450;28;20202;-50
2021/08/29 03:20:42;;;;;;;6.40;2.97;;;16.80;99.90;;;;;;5016666;28;20280;-50
2021/08/29 03:23:09;;;;;;;5.63;2.70;;;16.80;99.90;;;;;;5009717;28;20691;-50
2021/08/29 03:25:36;;;;;;;6.57;2.53;;;16.90;99.90;;;;;;5015679;28;20623;-50
2021/08/29 03:28:04;;;;;;;5.93;2.97;;;16.90;99.90;;;;;;5018790;28;20236;-50
2021/08/29 03:30:30;;;;;;;5.47;2.70;;;17.00;99.90;;;;;;5012902;28;20318;-50
2021/08/29 03:32:57;;;;;;;4.47;2.80;;;17.10;99.90;;;;;;5016749;28;20315;-50
2021/08/29 03:35:26;;;;;;;8.23;2.93;;;17.10;99.90;;;;;;5018153;28;20284;-50
2021/08/29 03:37:54;;;;;;;6.60;2.80;;;17.10;99.90;;;;;;5016605;28;20289;-50
2021/08/29 03:40:21;;;;;;;5.50;2.80;;;17.10;99.90;;;;;;5016951;28;20230;-50
2021/08/29 03:42:48;;;;;;;3.83;2.63;;;17.00;99.90;;;;;;5017808;28;20310;-50
2021/08/29 03:45:15;;;;;;;8.60;3.30;;;17.00;99.90;;;;;;5019510;28;20228;-50
2021/08/29 03:47:42;;;;;;;7.87;3.30;;;17.00;99.90;;;;;;5012481;28;20264;-50
2021/08/29 03:50:10;;;;;;;7.20;3.17;;;16.90;99.90;;;;;;5016713;28;20220;-50
2021/08/29 03:52:38;;;;;;;7.80;2.93;;;16.90;99.90;;;;;;5016622;28;20297;-50
2021/08/29 03:55:06;;;;;;;4.30;2.90;;;16.90;99.90;;;;;;5017110;28;20322;-50
2021/08/29 03:57:33;;;;;;;4.70;2.97;;;17.00;99.90;;;;;;5017210;28;20404;-50
2021/08/29 04:00:00;;;;;;;5.33;2.70;;;17.00;99.90;;;;;;5017913;28;21669;-50
2021/08/29 04:02:27;;;;;;;7.00;3.00;;;17.00;99.90;;;;;;5016628;28;20509;-50
2021/08/29 04:04:55;;;;;;;6.60;2.90;;;16.90;99.90;;;;;;5016159;28;20608;-50
2021/08/29 04:07:24;;;;;;;4.70;3.10;;;16.90;99.90;;;;;;5016391;28;20728;-50
2021/08/29 04:09:51;;;;;;;8.63;3.40;;;16.70;99.90;;;;;;5017151;28;20305;-50
2021/08/29 04:12:19;;;;;;;4.20;2.50;;;16.70;99.90;;;;;;5016380;28;20209;-50
2021/08/29 04:14:46;;;;;;;6.77;2.33;;;16.70;99.90;;;;;;5007585;28;20205;-50
2021/08/29 04:17:14;;;;;;;6.27;2.93;;;16.80;99.90;;;;;;5012374;28;20207;-50
2021/08/29 04:19:42;;;;;;;5.10;2.63;;;16.90;99.90;;;;;;5016416;28;20981;-50
2021/08/29 04:22:10;;;;;;;5.03;2.80;;;16.90;99.90;;;;;;5018073;28;20305;-50
2021/08/29 04:24:37;;;;;;;6.07;2.77;;;16.90;99.90;;;;;;5017502;28;20210;-50
2021/08/29 04:27:04;;;;;;;5.30;2.70;;;16.90;99.90;;;;;;5017740;28;20317;-50
2021/08/29 04:29:31;;;;;;;10.17;3.30;;;16.90;99.90;;;;;;5018113;28;20369;-50
2021/08/29 04:31:59;;;;;;;4.40;2.67;;;16.80;99.90;;;;;;5014165;28;20320;-50
2021/08/29 04:34:25;;;;;;;4.30;3.10;;;16.80;99.90;;;;;;5015114;28;20625;-50
2021/08/29 04:36:52;;;;;;;3.97;2.80;;;16.80;99.90;;;;;;5018715;28;20306;-50
2021/08/29 04:39:19;;;;;;;7.93;2.87;;;16.80;99.90;;;;;;5015298;28;20231;-50
2021/08/29 04:41:46;;;;;;;5.00;2.73;;;16.80;99.90;;;;;;5016696;28;20288;-50
2021/08/29 04:44:12;;;;;;;7.10;3.00;;;16.70;99.90;;;;;;5016083;28;20302;-50
2021/08/29 04:46:40;;;;;;;7.57;2.63;;;16.70;99.90;;;;;;5017722;28;20223;-50
2021/08/29 04:49:07;;;;;;;5.40;2.77;;;16.80;99.90;;;;;;5011458;28;20365;-50
2021/08/29 04:51:33;;;;;;;3.30;2.40;;;16.60;99.90;;;;;;5017355;28;20248;-50
2021/08/29 04:54:00;;;;;;;4.70;2.40;;;16.70;99.90;;;;;;5019421;28;20336;-50
2021/08/29 04:56:27;;;;;;;4.70;2.77;;;16.60;99.90;;;;;;5022273;28;20236;-50
2021/08/29 04:58:54;;;;;;;4.37;2.30;;;16.70;99.90;;;;;;5021898;28;20194;-50
2021/08/29 05:01:21;;;;;;;5.83;2.57;;;16.80;99.90;;;;;;5020198;28;20305;-50
2021/08/29 05:03:48;;;;;;;5.63;2.43;;;16.80;99.90;;;;;;5019683;28;20215;-50
2021/08/29 05:06:15;;;;;;;4.90;2.60;;;16.70;99.90;;;;;;5019265;28;20224;-50
2021/08/29 05:08:42;;;;;;;5.27;2.83;;;16.50;99.90;;;;;;5018903;28;20215;-50
2021/08/29 05:11:09;;;;;;;5.57;3.03;;;16.60;99.90;;;;;;5016377;28;20306;-50
2021/08/29 05:13:36;;;;;;;9.10;2.40;;;16.60;99.90;;;;;;5019243;28;20319;-50
2021/08/29 05:16:03;;;;;;;9.10;3.10;;;16.70;99.90;;;;;;5018154;28;20654;-50
2021/08/29 05:18:31;;;;;;;4.90;2.33;;;16.60;99.90;;;;;;5018187;28;20202;-50
2021/08/29 05:20:57;;;;;;;7.87;2.50;;;16.70;99.90;;;;;;5018948;28;20209;-50
2021/08/29 05:23:32;;;;;;;7.63;2.67;;;16.80;99.90;;;;;;5020473;28;20222;-50
2021/08/29 05:25:59;;;;;;;3.77;2.57;;;16.60;99.90;;;;;;5016553;28;20235;-50
2021/08/29 05:28:26;;;;;;;5.97;2.40;;;16.70;99.90;;;;;;5020190;28;20225;-50
2021/08/29 05:30:53;;;;;;;6.90;2.93;;;16.60;99.90;;;;;;5017426;28;20260;-50
2021/08/29 05:33:20;;;;;;;6.03;2.90;;;16.70;99.90;;;;;;5018954;28;20203;-50
2021/08/29 05:35:46;;;;;;;5.17;2.60;;;16.70;99.90;;;;;;5017814;28;20301;-50
2021/08/29 05:38:13;;;;;;;6.63;2.60;;;16.80;99.90;;;;;;5021181;28;20200;-50
2021/08/29 05:40:40;;;;;;;4.13;2.47;;;16.80;99.90;;;;;;5017762;28;20366;-50
2021/08/29 05:43:07;;;;;;;4.80;2.70;;;16.70;99.90;;;;;;5020431;28;20313;-50
2021/08/29 05:45:34;;;;;;;8.23;2.67;;;16.80;99.90;;;;;;5015661;28;20289;-50
2021/08/29 05:48:01;;;;;;;8.87;2.53;;;16.70;99.90;;;;;;5016956;28;20615;-50
2021/08/29 05:50:28;;;;;;;5.33;2.83;;;16.70;99.90;;;;;;5017722;28;20491;-50
2021/08/29 05:52:55;;;;;;;6.47;2.73;;;16.70;99.90;;;;;;5018982;28;20238;-50
2021/08/29 05:55:22;;;;;;;4.30;2.40;;;16.60;99.90;;;;;;5015579;28;20636;-50
2021/08/29 05:57:52;;;;;;;8.53;2.87;;;16.70;99.90;;;;;;5017904;28;20205;-50
2021/08/29 06:00:19;;;;;;;5.83;3.17;;;16.80;99.90;;;;;;5014072;28;20605;-50
2021/08/29 06:02:47;;;;;;;8.00;2.30;;;16.80;99.90;;;;;;5016987;28;20238;-50
2021/08/29 06:05:14;;;;;;;6.47;2.80;;;16.80;99.90;;;;;;5016293;28;20666;-49
2021/08/29 06:07:41;;;;;;;5.40;2.20;;;16.70;99.90;;;;;;5017718;28;20372;-50
2021/08/29 06:10:09;;;;;;;7.00;2.07;;;16.70;99.90;;;;;;5017392;28;20223;-50
2021/08/29 06:12:36;;;;;;;8.53;2.53;;;16.70;99.90;;;;;;5017873;28;21188;-50
2021/08/29 06:15:03;;;;;;;5.40;2.30;;;16.70;99.90;;;;;;5014489;28;20242;-50
2021/08/29 06:17:30;;;;;;;5.13;1.80;;;16.70;99.90;;;;;;5018013;28;20231;-50
2021/08/29 06:19:57;;;;;;;6.17;2.30;;;16.60;99.90;;;;;;5018116;28;20234;-50
2021/08/29 06:22:24;;;;;;;8.33;2.00;;;16.50;99.90;;;;;;5017216;28;20227;-50
2021/08/29 06:24:51;;;;;;;8.07;2.30;;;16.60;99.90;;;;;;5015627;28;20541;-50
2021/08/29 06:27:17;;;;;;;7.47;2.40;;;16.60;99.90;;;;;;5018295;28;20230;-50
2021/08/29 06:29:44;;;;;;;6.80;2.43;;;16.70;99.90;;;;;;5015527;28;20303;-50
2021/08/29 06:32:11;;;;;;;5.10;2.17;;;16.70;99.90;;;;;;5018771;28;20330;-50
2021/08/29 06:34:38;;;;;;;5.07;1.80;;;16.60;99.90;;;;;;5015746;28;20820;-50
2021/08/29 06:37:04;;;;;;;4.50;2.00;;;16.70;99.90;;;;;;5017757;28;20330;-50
2021/08/29 06:39:31;;;;;;;6.63;2.10;;;16.70;99.90;;;;;;5013156;28;20198;-50
2021/08/29 06:41:59;;;;;;;5.23;2.03;;;16.80;99.90;;;;;;5016343;28;20247;-50
2021/08/29 06:44:25;;;;;;;6.27;2.20;;;16.80;99.90;;;;;;5017163;28;20201;-50
2021/08/29 06:46:52;;;;;;;7.90;2.07;;;16.80;99.90;;;;;;5015918;28;20226;-50
2021/08/29 06:49:20;;;;;;;6.07;1.90;;;16.90;99.90;;;;;;5020653;28;20225;-50
2021/08/29 06:51:47;;;;;;;5.93;1.90;;;16.90;99.90;;;;;;5019204;28;20320;-50
2021/08/29 06:54:14;;;;;;;5.80;2.90;;;16.80;99.90;;;;;;5016261;28;20359;-50
2021/08/29 06:56:41;;;;;;;8.93;2.20;;;16.80;99.90;;;;;;5017769;28;20296;-50
2021/08/29 06:59:09;;;;;;;8.00;2.10;;;16.90;99.90;;;;;;5018930;28;20298;-50
2021/08/29 07:01:36;;;;;;;7.10;1.50;;;16.80;99.90;;;;;;5016734;28;20301;-50
2021/08/29 07:04:03;;;;;;;7.27;2.07;;;16.80;99.90;;;;;;5016915;28;22429;-50
2021/08/29 07:06:30;;;;;;;9.10;2.50;;;16.90;99.90;;;;;;5018647;28;20202;-50
2021/08/29 07:08:57;;;;;;;8.03;2.53;;;16.90;99.90;;;;;;5011840;28;20608;-49
2021/08/29 07:11:23;;;;;;;6.83;1.90;;;16.90;99.90;;;;;;5019463;28;20308;-50
2021/08/29 07:13:50;;;;;;;6.13;2.00;;;16.90;99.90;;;;;;5015257;28;20711;-50
2021/08/29 07:16:17;;;;;;;8.30;2.97;;;16.90;99.90;;;;;;5017115;28;20320;-50
2021/08/29 07:18:44;;;;;;;4.63;1.83;;;16.80;99.90;;;;;;5015623;28;20208;-50
2021/08/29 07:21:11;;;;;;;7.37;2.30;;;16.80;99.90;;;;;;5016703;28;20239;-50
2021/08/29 07:23:37;;;;;;;6.60;2.00;;;16.90;99.90;;;;;;5017536;28;20301;-50
2021/08/29 07:26:04;;;;;;;9.50;1.73;;;17.00;99.90;;;;;;5016872;28;20614;-50
2021/08/29 07:28:31;;;;;;;6.40;2.10;;;16.90;99.90;;;;;;5014698;28;20385;-50
2021/08/29 07:30:58;;;;;;;6.27;1.90;;;17.00;99.90;;;;;;5012197;28;20337;-50
2021/08/29 07:33:24;;;;;;;6.63;2.17;;;17.00;99.90;;;;;;5016497;28;20201;-50
2021/08/29 07:35:51;;;;;;;8.80;2.40;;;16.90;99.90;;;;;;5014031;28;20323;-49
2021/08/29 07:38:18;;;;;;;9.87;2.90;;;16.90;99.90;;;;;;5016062;28;20205;-49
2021/08/29 07:40:45;;;;;;;6.40;2.13;;;16.90;99.90;;;;;;5016572;28;20288;-49
2021/08/29 07:43:11;;;;;;;7.00;2.00;;;17.00;99.90;;;;;;5013803;28;20293;-50
2021/08/29 07:45:38;;;;;;;4.93;2.20;;;17.00;99.90;;;;;;5012793;28;20961;-50
2021/08/29 07:48:05;;;;;;;6.77;1.97;;;17.00;99.90;;;;;;5015010;28;20690;-50
2021/08/29 07:50:32;;;;;;;6.70;2.07;;;16.90;99.90;;;;;;5013716;28;20217;-50
2021/08/29 07:52:59;;;;;;;4.07;1.40;;;17.10;99.90;;;;;;5012957;28;20667;-50
2021/08/29 07:55:25;;;;;;;6.53;2.23;;;17.00;99.90;;;;;;5012201;28;20262;-50
2021/08/29 07:57:52;;;;;;;8.20;2.00;;;17.00;99.90;;;;;;5013925;28;20748;-50
2021/08/29 08:00:19;;;;;;;8.83;2.27;;;17.00;99.90;;;;;;5014324;28;20335;-50
2021/08/29 08:02:46;;;;;;;7.00;2.43;;;17.10;99.90;;;;;;5008821;28;20210;-50
2021/08/29 08:05:13;;;;;;;6.30;2.10;;;17.00;99.90;;;;;;5013233;28;20239;-50
2021/08/29 08:07:40;;;;;;;5.97;2.47;;;17.10;99.90;;;;;;5012074;28;20204;-50
2021/08/29 08:10:07;;;;;;;4.80;1.83;;;17.00;99.90;;;;;;5012967;28;20225;-50
2021/08/29 08:12:34;;;;;;;5.90;1.77;;;17.10;99.90;;;;;;5015103;28;20752;-50
2021/08/29 08:15:01;;;;;;;5.27;1.60;;;17.20;99.90;;;;;;5012971;28;20305;-50
2021/08/29 08:17:27;;;;;;;5.50;1.60;;;17.10;99.90;;;;;;5012824;28;20332;-49
2021/08/29 08:19:54;;;;;;;6.17;1.77;;;17.20;99.90;;;;;;5013414;28;20915;-50
2021/08/29 08:22:21;;;;;;;3.27;1.50;;;17.20;99.90;;;;;;5014056;28;20213;-50
2021/08/29 08:24:48;;;;;;;7.77;1.87;;;17.20;99.90;;;;;;5012809;28;20246;-50
2021/08/29 08:27:15;;;;;;;10.67;2.33;;;17.10;99.90;;;;;;5019397;28;20319;-50
2021/08/29 08:29:42;;;;;;;8.87;2.23;;;17.10;99.90;;;;;;5015404;28;20320;-50
2021/08/29 08:32:08;;;;;;;18.00;2.40;;;17.10;99.90;;;;;;5016314;28;20230;-50
2021/08/29 08:34:35;;;;;;;5.23;2.17;;;17.10;99.90;;;;;;5015800;28;20646;-50
2021/08/29 08:37:02;;;;;;;10.37;2.27;;;17.10;99.90;;;;;;5019335;28;20755;-50
2021/08/29 08:39:29;;;;;;;4.20;2.23;;;17.10;99.90;;;;;;5017370;28;20733;-50
2021/08/29 08:41:56;;;;;;;10.00;3.00;;;17.10;99.90;;;;;;5019451;28;20226;-50
2021/08/29 08:44:22;;;;;;;4.90;1.80;;;17.00;99.90;;;;;;5020289;28;20299;-50
2021/08/29 08:46:53;;;;;;;4.67;1.83;;;17.10;99.90;;;;;;5018435;28;20351;-50
2021/08/29 08:49:20;;;;;;;4.63;2.03;;;17.10;99.90;;;;;;5017980;28;20293;-50
2021/08/29 08:51:51;;;;;;;6.90;2.03;;;17.10;99.90;;;;;;5020903;28;20322;-49
2021/08/29 08:54:18;;;;;;;8.30;2.13;;;17.00;99.90;;;;;;5016499;28;20341;-50
2021/08/29 08:56:47;;;;;;;5.13;1.73;;;17.00;99.90;;;;;;5021859;28;20853;-50
2021/08/29 08:59:14;;;;;;;8.03;2.30;;;17.00;99.90;;;;;;5018283;28;20325;-50
2021/08/29 09:01:41;;;;;;;4.83;1.60;;;17.10;99.90;;;;;;5019929;28;20314;-50
2021/08/29 09:04:10;;;;;;;6.57;2.20;;;17.10;99.90;;;;;;5014549;28;20210;-50
2021/08/29 09:06:37;;;;;;;8.47;2.03;;;17.10;99.90;;;;;;5017543;28;20310;-50
2021/08/29 09:09:04;;;;;;;8.03;1.80;;;17.10;99.90;;;;;;5018460;28;20243;-50
2021/08/29 09:11:40;;;;;;;8.23;2.00;;;17.10;99.90;;;;;;5016909;28;20240;-50
2021/08/29 09:14:07;;;;;;;8.07;2.10;;;17.10;99.90;;;;;;5015923;28;20941;-50
2021/08/29 09:16:35;;;;;;;7.67;1.57;;;17.00;99.90;;;;;;5016610;28;20342;-50
2021/08/29 09:19:04;;;;;;;10.93;1.83;;;17.10;99.90;;;;;;5017280;28;20297;-50
2021/08/29 09:21:37;;;;;;;8.77;1.97;;;17.20;99.90;;;;;;5014985;28;20291;-50
2021/08/29 09:24:09;;;;;;;9.40;2.17;;;17.10;99.90;;;;;;5017690;28;20722;-49
2021/08/29 09:26:43;;;;;;;8.53;2.13;;;17.20;99.90;;;;;;5017241;28;20285;-52
2021/08/29 09:29:24;;;;;;;4.27;2.23;;;17.20;99.90;;;;;;5015464;28;20211;-51
2021/08/29 09:31:52;;;;;;;5.63;2.27;;;17.30;99.90;;;;;;5019729;28;20228;-51
2021/08/29 09:34:23;;;;;;;8.70;2.40;;;17.10;99.90;;;;;;5018054;28;20292;-50
2021/08/29 09:37:00;;;;;;;5.77;1.90;;;17.10;99.90;;;;;;5016783;28;20198;-51
2021/08/29 09:39:26;;;;;;;7.20;1.97;;;17.10;99.90;;;;;;5017994;28;20251;-51
2021/08/29 09:42:04;;;;;;;5.13;2.10;;;17.00;99.90;;;;;;5017774;28;20227;-50
2021/08/29 09:44:34;;;;;;;7.77;2.40;;;16.90;99.90;;;;;;5009686;28;20202;-50
2021/08/29 09:47:05;;;;;;;5.63;2.27;;;16.90;99.90;;;;;;5016652;28;20232;-51
2021/08/29 09:49:35;;;;;;;7.47;2.30;;;17.00;99.90;;;;;;5015682;28;20205;-50
2021/08/29 09:52:05;;;;;;;7.53;2.50;;;16.90;99.90;;;;;;5018752;28;20686;-50
2021/08/29 09:54:40;;;;;;;9.33;2.40;;;16.80;99.90;;;;;;5015148;28;20369;-50
2021/08/29 09:57:09;;;;;;;4.40;2.00;;;16.90;99.90;;;;;;5018396;28;20726;-50
2021/08/29 09:59:56;;;;;;;4.23;2.30;;;16.90;99.90;;;;;;5015675;28;20213;-50
2021/08/29 10:02:31;;;;;;;7.27;2.33;;;16.90;99.90;;;;;;5018068;28;20302;-50
2021/08/29 10:05:12;;;;;;;6.87;2.43;;;16.90;99.90;;;;;;5016441;28;20205;-50
2021/08/29 10:08:09;;;;;;;4.47;2.20;;;16.80;99.90;;;;;;5018752;28;20229;-52
2021/08/29 10:10:38;;;;;;;8.57;1.90;;;16.70;99.90;;;;;;5018895;28;20292;-50
2021/08/29 10:13:07;;;;;;;5.80;2.13;;;16.70;99.90;;;;;;5014270;28;20396;-51
2021/08/29 10:15:34;;;;;;;5.33;2.33;;;16.70;99.90;;;;;;5017268;28;20697;-50
2021/08/29 10:18:02;;;;;;;5.83;2.30;;;16.80;99.90;;;;;;5013609;28;20210;-51
2021/08/29 10:20:34;;;;;;;5.23;2.13;;;16.70;99.90;;;;;;5016512;28;20337;-51
2021/08/29 10:23:02;;;;;;;4.10;2.40;;;16.80;99.90;;;;;;5014635;28;20323;-50
2021/08/29 10:25:29;;;;;;;5.13;2.23;;;16.70;99.90;;;;;;5017588;28;20297;-51
2021/08/29 10:28:11;;;;;;;8.07;2.33;;;16.90;99.90;;;;;;5016026;28;20789;-51
2021/08/29 10:30:40;;;;;;;9.70;2.23;;;16.90;99.90;;;;;;5015917;28;20759;-50
2021/08/29 10:33:12;;;;;;;12.13;3.20;;;16.90;99.90;;;;;;5018481;28;20649;-50
2021/08/29 10:35:39;;;;;;;9.87;2.90;;;17.00;99.90;;;;;;5018161;28;20643;-51
2021/08/29 10:38:08;;;;;;;5.67;2.53;;;17.00;99.90;;;;;;5020436;28;20269;-50
2021/08/29 10:40:36;;;;;;;6.60;2.50;;;17.00;99.90;;;;;;5020711;28;20312;-51
2021/08/29 10:43:03;;;;;;;4.93;2.00;;;17.10;99.90;;;;;;5019146;28;20310;-51
2021/08/29 10:45:30;;;;;;;8.93;2.30;;;17.10;99.90;;;;;;5019505;28;20205;-51
2021/08/29 10:47:58;;;;;;;9.17;2.47;;;17.10;99.90;;;;;;5020973;28;20240;-51
2021/08/29 10:50:26;;;;;;;6.37;2.20;;;17.00;99.90;;;;;;5019997;28;20236;-51
2021/08/29 10:52:52;;;;;;;9.30;2.20;;;17.00;99.90;;;;;;5020855;28;20326;-50
2021/08/29 10:55:19;;;;;;;10.90;2.60;;;17.00;99.90;;;;;;5020332;28;20523;-50
2021/08/29 10:57:48;;;;;;;7.17;2.30;;;17.00;99.90;;;;;;5019249;28;20677;-51
2021/08/29 11:00:17;;;;;;;7.53;2.47;;;17.00;99.90;;;;;;5020367;28;20198;-51
2021/08/29 11:02:47;;;;;;;6.60;2.07;;;17.00;99.90;;;;;;5020088;28;20258;-51
2021/08/29 11:05:37;;;;;;;4.17;1.83;;;16.90;99.90;;;;;;5018829;28;20209;-51
2021/08/29 11:08:26;;;;;;;8.07;2.90;;;16.90;99.90;;;;;;5018525;28;20209;-51
2021/08/29 11:10:53;;;;;;;6.93;2.50;;;16.90;99.90;;;;;;5020093;28;20310;-50
2021/08/29 11:13:33;;;;;;;9.13;1.70;;;16.70;99.90;;;;;;5019482;28;20310;-51
2021/08/29 11:16:09;;;;;;;6.10;1.93;;;16.80;99.90;;;;;;5018642;28;20258;-51
2021/08/29 11:19:01;;;;;;;5.20;2.23;;;16.80;99.90;;;;;;5018620;28;20260;-51
2021/08/29 11:21:34;;;;;;;6.70;2.10;;;16.70;99.90;;;;;;5020655;28;20203;-50
2021/08/29 11:24:02;;;;;;;6.60;2.23;;;16.70;99.90;;;;;;5017955;28;20211;-51
2021/08/29 11:26:35;;;;;;;6.43;2.17;;;16.60;99.90;;;;;;5019705;28;20198;-51
2021/08/29 11:29:54;;;;;;;6.03;2.30;;;16.70;99.90;;;;;;5019260;28;20550;-50
2021/08/29 11:32:37;;;;;;;8.93;2.43;;;16.60;99.90;;;;;;5014742;28;20402;-51
2021/08/29 11:35:06;;;;;;;10.80;2.83;;;16.70;99.90;;;;;;5018861;28;20296;-51
2021/08/29 11:37:32;;;;;;;4.17;2.00;;;16.70;99.90;;;;;;5018899;28;20293;-51
2021/08/29 11:40:05;;;;;;;6.27;2.33;;;16.70;99.90;;;;;;5020743;28;20200;-50
2021/08/29 11:42:34;;;;;;;5.03;2.00;;;16.70;99.90;;;;;;5018506;28;20222;-51
2021/08/29 11:45:02;;;;;;;5.87;2.40;;;16.80;99.90;;;;;;5017640;28;20616;-51
2021/08/29 11:47:37;;;;;;;5.83;2.53;;;16.80;99.90;;;;;;5017942;28;20199;-51
2021/08/29 11:50:06;;;;;;;11.37;2.43;;;16.80;99.90;;;;;;5017310;28;20203;-50
2021/08/29 11:52:35;;;;;;;9.53;2.63;;;16.80;99.90;;;;;;5016392;28;23282;-50
2021/08/29 11:55:13;;;;;;;5.77;2.10;;;16.80;99.90;;;;;;5015441;28;20276;-50
2021/08/29 11:57:52;;;;;;;7.50;3.20;;;17.00;99.90;;;;;;5017730;28;20213;-51
2021/08/29 12:00:23;;;;;;;8.90;2.30;;;17.10;99.90;;;;;;5020446;28;20223;-51
2021/08/29 12:02:53;;;;;;;7.40;2.40;;;17.10;99.90;;;;;;5025889;28;20543;-51
2021/08/29 12:05:21;;;;;;;11.50;2.87;;;17.20;99.90;;;;;;5025294;28;20254;-51
2021/08/29 12:07:56;;;;;;;6.40;2.27;;;17.20;99.90;;;;;;5023197;28;20207;-51
2021/08/29 12:10:25;;;;;;;15.47;2.53;;;17.10;99.90;;;;;;5025737;28;20209;-51
2021/08/29 12:12:53;;;;;;;8.83;2.60;;;17.10;99.90;;;;;;5021928;28;20655;-51
2021/08/29 12:15:25;;;;;;;5.30;2.10;;;17.00;99.90;;;;;;5021472;28;20297;-51
2021/08/29 12:18:00;;;;;;;7.57;2.70;;;17.00;99.90;;;;;;5023707;28;20254;-50
2021/08/29 12:20:28;;;;;;;5.20;2.37;;;17.20;99.90;;;;;;5023020;28;20692;-50
2021/08/29 12:23:06;;;;;;;5.67;2.20;;;17.10;99.90;;;;;;5019846;28;20203;-50
2021/08/29 12:25:38;;;;;;;9.60;2.40;;;17.10;99.90;;;;;;5019893;28;20299;-50
2021/08/29 12:28:10;;;;;;;8.63;2.43;;;17.00;99.90;;;;;;5019572;28;20714;-50
2021/08/29 12:30:37;;;;;;;8.03;2.47;;;16.80;99.90;;;;;;5026029;28;20287;-50
2021/08/29 12:33:12;;;;;;;6.80;2.27;;;16.90;99.90;;;;;;5023632;28;20353;-50
2021/08/29 12:35:44;;;;;;;8.23;2.83;;;16.90;99.90;;;;;;5024551;28;20617;-50
2021/08/29 12:38:18;;;;;;;8.30;2.47;;;17.20;99.90;;;;;;5022229;28;20293;-50
2021/08/29 12:40:45;;;;;;;12.97;2.63;;;17.20;99.90;;;;;;5028963;28;20214;-50
2021/08/29 12:43:12;;;;;;;7.90;3.30;;;17.00;99.90;;;;;;5025261;28;20363;-50
2021/08/29 12:45:39;;;;;;;13.00;4.53;;;17.20;99.90;;;;;;5023133;28;20631;-50
2021/08/29 12:48:07;;;;;;;13.27;6.77;;;17.20;99.90;;;;;;5017701;28;20705;-51
2021/08/29 12:50:46;;;;;;;8.20;5.63;;;17.20;99.90;;;;;;5017759;28;20233;-50
2021/08/29 12:53:15;;;;;;;8.50;4.47;;;17.40;99.90;;;;;;5020988;28;20750;-50
2021/08/29 12:55:56;;;;;;;8.30;4.80;;;17.20;99.90;;;;;;5022777;28;20307;-57